createdAt,value
2017-10-20T00:00:02.322Z,9.02
2017-10-20T00:02:28.599Z,9.02
2017-10-20T00:04:54.847Z,9.05
2017-10-20T00:07:21.959Z,8.97
2017-10-20T00:09:48.280Z,8.98
2017-10-20T00:12:14.622Z,9.02
2017-10-20T00:14:40.866Z,8.93
2017-10-20T00:17:07.139Z,8.99
2017-10-20T00:19:33.421Z,9.08
2017-10-20T00:21:59.694Z,8.97
2017-10-20T00:24:26.103Z,8.91
2017-10-20T00:26:52.530Z,8.76
2017-10-20T00:29:18.795Z,8.78
2017-10-20T00:31:45.070Z,8.70
2017-10-20T00:34:11.336Z,8.61
2017-10-20T00:36:37.600Z,8.61
2017-10-20T00:39:03.896Z,8.57
2017-10-20T00:41:30.170Z,8.57
2017-10-20T00:43:56.444Z,8.64
2017-10-20T00:46:22.707Z,8.60
2017-10-20T00:48:48.987Z,8.52
2017-10-20T00:51:15.244Z,8.46
2017-10-20T00:53:41.497Z,8.47
2017-10-20T00:56:07.760Z,8.49
2017-10-20T00:58:34.017Z,8.41
2017-10-20T01:01:00.365Z,8.37
2017-10-20T01:03:26.681Z,8.29
2017-10-20T01:05:52.970Z,8.24
2017-10-20T01:08:19.239Z,8.22
2017-10-20T01:10:45.477Z,8.19
2017-10-20T01:13:11.742Z,8.17
2017-10-20T01:15:38.015Z,8.11
2017-10-20T01:18:04.282Z,8.15
2017-10-20T01:20:30.592Z,8.13
2017-10-20T01:22:56.850Z,8.06
2017-10-20T01:25:23.160Z,8.12
2017-10-20T01:27:49.439Z,8.07
2017-10-20T01:30:15.728Z,8.05
2017-10-20T01:32:42.146Z,7.98
2017-10-20T01:35:08.395Z,7.95
2017-10-20T01:37:34.671Z,8.14
2017-10-20T01:40:00.931Z,8.33
2017-10-20T01:42:27.194Z,8.26
2017-10-20T01:44:53.462Z,8.25
2017-10-20T01:47:19.726Z,8.25
2017-10-20T01:49:46.053Z,8.30
2017-10-20T01:52:12.333Z,8.22
2017-10-20T01:54:38.613Z,8.16
2017-10-20T01:57:04.888Z,8.25
2017-10-20T01:59:31.165Z,8.20
2017-10-20T02:01:57.499Z,8.09
2017-10-20T02:04:23.778Z,8.08
2017-10-20T02:06:50.058Z,8.01
2017-10-20T02:09:16.336Z,8.00
2017-10-20T02:11:42.618Z,7.94
2017-10-20T02:14:08.883Z,7.90
2017-10-20T02:16:35.162Z,7.83
2017-10-20T02:19:01.437Z,7.83
2017-10-20T02:21:27.938Z,7.82
2017-10-20T02:23:54.227Z,7.79
2017-10-20T02:26:20.550Z,7.77
2017-10-20T02:28:46.835Z,7.72
2017-10-20T02:31:13.111Z,7.65
2017-10-20T02:33:39.416Z,7.70
2017-10-20T02:36:05.695Z,7.79
2017-10-20T02:38:32.003Z,7.63
2017-10-20T02:40:58.277Z,7.64
2017-10-20T02:43:24.545Z,7.64
2017-10-20T02:45:50.808Z,7.55
2017-10-20T02:48:17.093Z,7.55
2017-10-20T02:50:43.425Z,7.49
2017-10-20T02:53:09.734Z,7.44
2017-10-20T02:55:36.028Z,7.41
2017-10-20T02:58:02.324Z,7.45
2017-10-20T03:00:28.582Z,7.41
2017-10-20T03:02:54.854Z,7.40
2017-10-20T03:05:21.127Z,7.40
2017-10-20T03:07:47.396Z,7.37
2017-10-20T03:10:13.662Z,7.35
2017-10-20T03:12:39.927Z,7.38
2017-10-20T03:15:06.239Z,7.33
2017-10-20T03:17:32.508Z,7.31
2017-10-20T03:19:58.773Z,7.32
2017-10-20T03:22:25.032Z,7.31
2017-10-20T03:24:51.276Z,7.25
2017-10-20T03:27:17.547Z,7.24
2017-10-20T03:29:43.802Z,7.26
2017-10-20T03:32:10.228Z,7.10
2017-10-20T03:34:36.508Z,7.19
2017-10-20T03:37:02.774Z,7.43
2017-10-20T03:39:29.093Z,7.49
2017-10-20T03:41:55.357Z,7.50
2017-10-20T03:44:21.630Z,7.56
2017-10-20T03:46:48.010Z,7.46
2017-10-20T03:49:14.287Z,7.43
2017-10-20T03:51:40.565Z,7.35
2017-10-20T03:54:06.834Z,7.31
2017-10-20T03:56:33.095Z,7.30
2017-10-20T03:58:59.365Z,7.19
2017-10-20T04:01:25.625Z,7.13
2017-10-20T04:03:51.947Z,7.18
2017-10-20T04:06:18.216Z,7.13
2017-10-20T04:08:44.494Z,7.08
2017-10-20T04:11:10.767Z,7.12
2017-10-20T04:13:37.049Z,7.06
2017-10-20T04:16:03.327Z,7.01
2017-10-20T04:18:29.587Z,6.96
2017-10-20T04:20:55.839Z,6.91
2017-10-20T04:23:22.108Z,6.91
2017-10-20T04:25:48.473Z,7.03
2017-10-20T04:28:14.774Z,7.31
2017-10-20T04:30:41.050Z,7.12
2017-10-20T04:33:07.327Z,7.05
2017-10-20T04:35:33.591Z,6.99
2017-10-20T04:37:59.871Z,6.96
2017-10-20T04:40:26.272Z,6.97
2017-10-20T04:42:52.602Z,7.20
2017-10-20T04:45:18.882Z,7.20
2017-10-20T04:47:45.176Z,7.15
2017-10-20T04:50:11.442Z,7.12
2017-10-20T04:52:37.714Z,7.08
2017-10-20T04:55:03.990Z,7.34
2017-10-20T04:57:30.272Z,7.40
2017-10-20T04:59:56.552Z,7.71
2017-10-20T05:02:22.824Z,8.17
2017-10-20T05:04:49.140Z,8.74
2017-10-20T05:07:15.411Z,9.58
2017-10-20T05:09:41.685Z,10.56
2017-10-20T05:12:07.981Z,11.56
2017-10-20T05:14:34.238Z,12.43
2017-10-20T05:17:00.557Z,13.00
2017-10-20T05:19:26.891Z,13.79
2017-10-20T05:21:53.181Z,14.26
2017-10-20T05:24:19.465Z,14.66
2017-10-20T05:26:45.758Z,14.85
2017-10-20T05:29:12.030Z,14.67
2017-10-20T05:31:38.295Z,15.35
2017-10-20T05:34:04.557Z,15.92
2017-10-20T05:36:30.820Z,16.25
2017-10-20T05:38:57.093Z,16.83
2017-10-20T05:41:23.418Z,17.64
2017-10-20T05:43:49.685Z,17.59
2017-10-20T05:46:15.952Z,18.07
2017-10-20T05:48:42.228Z,18.45
2017-10-20T05:51:08.488Z,18.42
2017-10-20T05:53:34.773Z,18.90
2017-10-20T05:56:01.033Z,19.50
2017-10-20T05:58:27.428Z,19.67
2017-10-20T06:00:53.704Z,20.15
2017-10-20T06:03:19.974Z,19.66
2017-10-20T06:05:46.237Z,19.81
2017-10-20T06:08:12.509Z,20.20
2017-10-20T06:10:38.802Z,20.70
2017-10-20T06:13:05.127Z,21.02
2017-10-20T06:15:31.394Z,21.28
2017-10-20T06:17:57.672Z,21.87
2017-10-20T06:20:23.925Z,21.73
2017-10-20T06:22:50.213Z,22.11
2017-10-20T06:25:16.537Z,22.18
2017-10-20T06:27:42.816Z,22.44
2017-10-20T06:30:09.077Z,22.78
2017-10-20T06:32:35.340Z,23.48
2017-10-20T06:35:01.658Z,23.65
2017-10-20T06:37:27.973Z,23.52
2017-10-20T06:39:54.335Z,24.34
2017-10-20T06:42:20.603Z,24.63
2017-10-20T06:44:46.878Z,24.33
2017-10-20T06:47:13.165Z,24.56
2017-10-20T06:49:39.457Z,25.56
2017-10-20T06:52:05.738Z,25.54
2017-10-20T06:54:32.018Z,25.78
2017-10-20T06:56:58.297Z,25.02
2017-10-20T06:59:24.587Z,24.95
2017-10-20T07:01:50.909Z,24.42
2017-10-20T07:04:17.180Z,25.06
2017-10-20T07:06:43.463Z,25.14
2017-10-20T07:09:09.735Z,24.77
2017-10-20T07:11:36.131Z,25.42
2017-10-20T07:14:02.431Z,25.52
2017-10-20T07:16:28.721Z,26.01
2017-10-20T07:18:55.003Z,25.75
2017-10-20T07:21:21.287Z,25.92
2017-10-20T07:23:47.593Z,26.67
2017-10-20T07:26:13.907Z,26.32
2017-10-20T07:28:40.198Z,26.45
2017-10-20T07:31:06.509Z,26.46
2017-10-20T07:33:32.797Z,26.60
2017-10-20T07:35:59.082Z,27.06
2017-10-20T07:38:25.439Z,26.97
2017-10-20T07:40:51.716Z,27.01
2017-10-20T07:43:18.006Z,27.12
2017-10-20T07:45:44.293Z,27.50
2017-10-20T07:48:10.572Z,27.59
2017-10-20T07:50:36.919Z,28.53
2017-10-20T07:53:03.183Z,28.30
2017-10-20T07:55:29.478Z,27.99
2017-10-20T07:57:55.882Z,28.13
2017-10-20T08:00:22.144Z,28.30
2017-10-20T08:02:48.424Z,28.04
2017-10-20T08:05:14.721Z,28.37
2017-10-20T08:07:40.989Z,28.76
2017-10-20T08:10:07.289Z,28.94
2017-10-20T08:12:33.571Z,28.89
2017-10-20T08:14:59.926Z,27.94
2017-10-20T08:17:26.188Z,29.28
2017-10-20T08:19:52.451Z,29.65
2017-10-20T08:22:18.731Z,29.52
2017-10-20T08:24:45.011Z,29.39
2017-10-20T08:27:11.296Z,29.39
2017-10-20T08:29:37.593Z,30.12
2017-10-20T08:32:03.871Z,30.55
2017-10-20T08:34:30.163Z,31.31
2017-10-20T08:36:56.599Z,31.09
2017-10-20T08:39:22.879Z,31.36
2017-10-20T08:41:49.135Z,31.12
2017-10-20T08:44:15.407Z,31.31
2017-10-20T08:46:41.642Z,31.95
2017-10-20T08:49:07.877Z,32.00
2017-10-20T08:51:34.160Z,32.05
2017-10-20T08:54:00.377Z,32.15
2017-10-20T08:56:26.588Z,32.03
2017-10-20T08:58:52.851Z,32.43
2017-10-20T09:01:19.101Z,32.36
2017-10-20T09:03:45.341Z,33.60
2017-10-20T09:06:11.573Z,34.47
2017-10-20T09:08:37.804Z,34.01
2017-10-20T09:11:04.145Z,33.92
2017-10-20T09:13:30.362Z,34.21
2017-10-20T09:15:56.673Z,34.67
2017-10-20T09:18:22.912Z,33.87
2017-10-20T09:20:49.154Z,35.05
2017-10-20T09:23:15.403Z,35.38
2017-10-20T09:25:41.635Z,36.91
2017-10-20T09:28:07.855Z,36.97
2017-10-20T09:30:34.081Z,36.58
2017-10-20T09:33:00.328Z,35.80
2017-10-20T09:35:26.561Z,36.29
2017-10-20T09:37:52.807Z,36.59
2017-10-20T09:40:19.084Z,36.29
2017-10-20T09:42:45.297Z,36.93
2017-10-20T09:45:11.517Z,36.22
2017-10-20T09:47:37.756Z,36.42
2017-10-20T09:50:03.986Z,36.85
2017-10-20T09:52:30.206Z,37.04
2017-10-20T09:54:56.444Z,36.29
2017-10-20T09:57:22.677Z,36.20
2017-10-20T09:59:48.902Z,36.61
2017-10-20T10:02:15.261Z,36.92
2017-10-20T10:04:41.515Z,36.57
2017-10-20T10:07:07.717Z,37.30
2017-10-20T10:09:33.938Z,37.80
2017-10-20T10:12:00.188Z,38.36
2017-10-20T10:14:26.418Z,38.07
2017-10-20T10:16:52.728Z,37.84
2017-10-20T10:19:18.941Z,37.79
2017-10-20T10:21:45.162Z,37.91
2017-10-20T10:24:11.376Z,37.58
2017-10-20T10:26:37.595Z,37.01
2017-10-20T10:29:03.873Z,36.88
2017-10-20T10:31:30.112Z,37.48
2017-10-20T10:33:56.362Z,38.01
2017-10-20T10:36:22.601Z,38.47
2017-10-20T10:38:48.820Z,38.42
2017-10-20T10:41:15.074Z,38.57
2017-10-20T10:43:41.327Z,38.82
2017-10-20T10:46:07.555Z,39.07
2017-10-20T10:48:33.778Z,39.19
2017-10-20T10:51:00.035Z,39.94
2017-10-20T10:53:26.258Z,39.56
2017-10-20T10:55:52.518Z,39.26
2017-10-20T10:58:18.746Z,39.01
2017-10-20T11:00:44.994Z,38.68
2017-10-20T11:03:11.364Z,38.17
2017-10-20T11:05:37.596Z,37.54
2017-10-20T11:08:03.835Z,37.64
2017-10-20T11:10:30.042Z,37.85
2017-10-20T11:12:56.290Z,37.75
2017-10-20T11:15:22.617Z,38.18
2017-10-20T11:17:48.842Z,37.46
2017-10-20T11:20:15.068Z,36.87
2017-10-20T11:22:41.410Z,37.56
2017-10-20T11:25:07.692Z,38.97
2017-10-20T11:27:33.938Z,38.89
2017-10-20T11:30:00.170Z,38.66
2017-10-20T11:32:26.618Z,38.71
2017-10-20T11:34:52.837Z,38.19
2017-10-20T11:37:19.059Z,37.80
2017-10-20T11:39:45.297Z,37.03
2017-10-20T11:42:11.518Z,37.16
2017-10-20T11:44:37.733Z,37.50
2017-10-20T11:47:03.974Z,37.35
2017-10-20T11:49:30.237Z,36.06
2017-10-20T11:51:56.481Z,37.53
2017-10-20T11:54:22.717Z,35.95
2017-10-20T11:56:48.949Z,37.25
2017-10-20T11:59:15.358Z,38.25
2017-10-20T12:01:41.614Z,36.55
2017-10-20T12:04:07.842Z,38.02
2017-10-20T12:06:34.062Z,39.08
2017-10-20T12:09:00.320Z,38.92
2017-10-20T12:11:26.557Z,39.03
2017-10-20T12:13:52.795Z,38.69
2017-10-20T12:16:19.060Z,38.87
2017-10-20T12:18:45.308Z,39.59
2017-10-20T12:21:11.543Z,39.39
2017-10-20T12:23:37.783Z,38.27
2017-10-20T12:26:04.027Z,38.69
2017-10-20T12:28:30.269Z,37.75
2017-10-20T12:30:56.552Z,38.27
2017-10-20T12:33:22.779Z,37.93
2017-10-20T12:35:49.017Z,38.67
2017-10-20T12:38:15.285Z,38.97
2017-10-20T12:40:41.526Z,39.70
2017-10-20T12:43:07.802Z,39.40
2017-10-20T12:45:34.072Z,37.14
2017-10-20T12:48:00.546Z,37.54
2017-10-20T12:50:26.783Z,36.48
2017-10-20T12:52:53.212Z,36.41
2017-10-20T12:55:19.461Z,36.49
2017-10-20T12:57:45.706Z,35.82
2017-10-20T13:00:11.931Z,37.44
2017-10-20T13:02:38.193Z,38.54
2017-10-20T13:05:04.448Z,37.21
2017-10-20T13:07:30.754Z,37.62
2017-10-20T13:09:57.014Z,36.69
2017-10-20T13:12:23.465Z,37.02
2017-10-20T13:14:49.752Z,36.78
2017-10-20T13:17:16.005Z,36.92
2017-10-20T13:19:42.283Z,36.96
2017-10-20T13:22:08.592Z,37.59
2017-10-20T13:24:34.840Z,37.65
2017-10-20T13:27:01.189Z,36.41
2017-10-20T13:29:27.442Z,35.75
2017-10-20T13:31:53.704Z,34.44
2017-10-20T13:34:19.964Z,33.36
2017-10-20T13:36:46.247Z,32.56
2017-10-20T13:39:12.507Z,30.41
2017-10-20T13:41:38.778Z,30.14
2017-10-20T13:44:05.046Z,29.48
2017-10-20T13:46:31.325Z,29.06
2017-10-20T13:48:57.577Z,28.90
2017-10-20T13:51:23.890Z,28.65
2017-10-20T13:53:50.144Z,28.49
2017-10-20T13:56:16.417Z,27.97
2017-10-20T13:58:42.674Z,27.77
2017-10-20T14:01:08.946Z,27.66
2017-10-20T14:03:35.222Z,27.54
2017-10-20T14:06:01.517Z,27.32
2017-10-20T14:08:27.787Z,27.10
2017-10-20T14:10:54.045Z,26.84
2017-10-20T14:13:20.421Z,26.67
2017-10-20T14:15:46.688Z,26.54
2017-10-20T14:18:12.942Z,26.49
2017-10-20T14:20:39.220Z,26.45
2017-10-20T14:23:05.497Z,26.36
2017-10-20T14:25:31.767Z,26.29
2017-10-20T14:27:58.065Z,26.24
2017-10-20T14:30:24.314Z,26.16
2017-10-20T14:32:50.564Z,26.06
2017-10-20T14:35:16.839Z,25.86
2017-10-20T14:37:43.176Z,25.76
2017-10-20T14:40:09.542Z,25.61
2017-10-20T14:42:35.854Z,25.44
2017-10-20T14:45:02.141Z,25.22
2017-10-20T14:47:28.408Z,24.99
2017-10-20T14:49:54.694Z,24.76
2017-10-20T14:52:20.996Z,24.51
2017-10-20T14:54:47.293Z,24.20
2017-10-20T14:57:13.561Z,23.88
2017-10-20T14:59:39.860Z,23.58
2017-10-20T15:02:06.141Z,23.30
2017-10-20T15:04:32.455Z,22.98
2017-10-20T15:06:58.743Z,22.59
2017-10-20T15:09:25.039Z,22.48
2017-10-20T15:11:51.337Z,22.25
2017-10-20T15:14:17.634Z,22.05
2017-10-20T15:16:43.899Z,21.83
2017-10-20T15:19:10.189Z,21.62
2017-10-20T15:21:36.458Z,21.36
2017-10-20T15:24:02.710Z,21.13
2017-10-20T15:26:28.960Z,20.92
2017-10-20T15:28:55.269Z,20.69
2017-10-20T15:31:21.525Z,20.56
2017-10-20T15:33:48.797Z,20.39
2017-10-20T15:36:15.071Z,20.20
2017-10-20T15:38:41.315Z,20.08
2017-10-20T15:41:07.636Z,19.93
2017-10-20T15:43:33.917Z,19.72
2017-10-20T15:46:00.182Z,19.55
2017-10-20T15:48:26.494Z,19.33
2017-10-20T15:50:52.809Z,19.12
2017-10-20T15:53:19.126Z,18.92
2017-10-20T15:55:45.458Z,18.76
2017-10-20T15:58:11.735Z,18.65
2017-10-20T16:00:38.001Z,18.51
2017-10-20T16:03:04.266Z,18.43
2017-10-20T16:05:30.528Z,18.28
2017-10-20T16:07:56.783Z,18.17
2017-10-20T16:10:23.043Z,18.06
2017-10-20T16:12:49.309Z,17.91
2017-10-20T16:15:15.566Z,17.76
2017-10-20T16:17:41.821Z,17.66
2017-10-20T16:20:08.142Z,17.58
2017-10-20T16:22:34.413Z,17.47
2017-10-20T16:25:00.673Z,17.32
2017-10-20T16:27:27.075Z,17.20
2017-10-20T16:29:53.551Z,17.08
2017-10-20T16:32:19.860Z,16.96
2017-10-20T16:34:46.182Z,16.84
2017-10-20T16:37:12.455Z,16.71
2017-10-20T16:39:38.718Z,16.59
2017-10-20T16:42:05.074Z,16.50
2017-10-20T16:44:31.371Z,16.35
2017-10-20T16:46:57.642Z,16.23
2017-10-20T16:49:23.897Z,16.21
2017-10-20T16:51:50.151Z,16.26
2017-10-20T16:54:16.427Z,16.09
2017-10-20T16:56:42.692Z,15.94
2017-10-20T16:59:08.970Z,15.77
2017-10-20T17:01:35.227Z,15.71
2017-10-20T17:04:01.536Z,15.66
2017-10-20T17:06:27.993Z,15.68
2017-10-20T17:08:54.305Z,15.55
2017-10-20T17:11:20.575Z,15.38
2017-10-20T17:13:46.969Z,15.22
2017-10-20T17:16:13.242Z,15.21
2017-10-20T17:18:39.623Z,15.09
2017-10-20T17:21:05.924Z,14.99
2017-10-20T17:23:32.241Z,14.82
2017-10-20T17:25:58.475Z,14.84
2017-10-20T17:28:24.743Z,14.78
2017-10-20T17:30:51.061Z,14.68
2017-10-20T17:33:17.358Z,14.51
2017-10-20T17:35:43.618Z,14.58
2017-10-20T17:38:09.878Z,14.42
2017-10-20T17:40:36.164Z,14.43
2017-10-20T17:43:02.423Z,14.18
2017-10-20T17:45:28.678Z,14.33
2017-10-20T17:47:54.918Z,14.21
2017-10-20T17:50:21.164Z,14.11
2017-10-20T17:52:47.469Z,13.98
2017-10-20T17:55:13.726Z,14.03
2017-10-20T17:57:39.989Z,14.06
2017-10-20T18:00:06.418Z,14.07
2017-10-20T18:02:32.685Z,13.81
2017-10-20T18:04:58.940Z,13.73
2017-10-20T18:07:25.192Z,13.80
2017-10-20T18:09:51.460Z,13.73
2017-10-20T18:12:17.723Z,13.59
2017-10-20T18:14:43.981Z,13.61
2017-10-20T18:17:10.239Z,13.60
2017-10-20T18:19:36.531Z,13.65
2017-10-20T18:22:02.803Z,13.62
2017-10-20T18:24:29.064Z,13.60
2017-10-20T18:26:55.334Z,13.56
2017-10-20T18:29:21.626Z,13.41
2017-10-20T18:31:47.872Z,13.30
2017-10-20T18:34:14.126Z,13.25
2017-10-20T18:36:40.387Z,13.27
2017-10-20T18:39:06.644Z,13.18
2017-10-20T18:41:32.907Z,13.08
2017-10-20T18:43:59.182Z,13.00
2017-10-20T18:46:25.499Z,13.02
2017-10-20T18:48:51.754Z,12.92
2017-10-20T18:51:18.007Z,12.85
2017-10-20T18:53:44.297Z,12.70
2017-10-20T18:56:10.567Z,12.68
2017-10-20T18:58:36.847Z,12.52
2017-10-20T19:01:03.164Z,12.44
2017-10-20T19:03:29.625Z,12.37
2017-10-20T19:05:55.883Z,12.25
2017-10-20T19:08:22.228Z,12.23
2017-10-20T19:10:48.485Z,12.22
2017-10-20T19:13:14.757Z,12.23
2017-10-20T19:15:41.022Z,12.22
2017-10-20T19:18:07.288Z,12.14
2017-10-20T19:20:33.568Z,12.16
2017-10-20T19:22:59.860Z,12.34
2017-10-20T19:25:26.113Z,12.14
2017-10-20T19:27:52.388Z,12.12
2017-10-20T19:30:18.651Z,12.30
2017-10-20T19:32:44.937Z,12.18
2017-10-20T19:35:11.204Z,11.97
2017-10-20T19:37:37.470Z,11.92
2017-10-20T19:40:03.870Z,11.85
2017-10-20T19:42:30.160Z,11.78
2017-10-20T19:44:56.435Z,11.88
2017-10-20T19:47:22.687Z,11.96
2017-10-20T19:49:48.937Z,11.90
2017-10-20T19:52:15.256Z,11.81
2017-10-20T19:54:41.584Z,11.67
2017-10-20T19:57:07.874Z,11.60
2017-10-20T19:59:34.171Z,11.52
2017-10-20T20:02:00.431Z,11.53
2017-10-20T20:04:26.775Z,11.60
2017-10-20T20:06:53.100Z,11.41
2017-10-20T20:09:19.355Z,11.39
2017-10-20T20:11:45.642Z,11.44
2017-10-20T20:14:11.895Z,11.27
2017-10-20T20:16:38.186Z,11.13
2017-10-20T20:19:04.460Z,11.03
2017-10-20T20:21:30.725Z,11.11
2017-10-20T20:23:57.023Z,11.16
2017-10-20T20:26:23.285Z,11.42
2017-10-20T20:28:49.644Z,11.43
2017-10-20T20:31:15.916Z,11.05
2017-10-20T20:33:42.189Z,10.98
2017-10-20T20:36:08.451Z,10.84
2017-10-20T20:38:34.722Z,11.13
2017-10-20T20:41:00.999Z,11.01
2017-10-20T20:43:27.259Z,10.87
2017-10-20T20:45:53.535Z,10.78
2017-10-20T20:48:19.831Z,10.67
2017-10-20T20:50:46.083Z,10.50
2017-10-20T20:53:12.383Z,10.48
2017-10-20T20:55:38.688Z,10.66
2017-10-20T20:58:05.009Z,10.60
2017-10-20T21:00:31.323Z,10.55
2017-10-20T21:02:57.598Z,10.51
2017-10-20T21:05:23.867Z,10.36
2017-10-20T21:07:50.175Z,10.31
2017-10-20T21:10:16.448Z,10.17
2017-10-20T21:12:42.988Z,10.09
2017-10-20T21:15:09.263Z,10.39
2017-10-20T21:17:35.523Z,10.27
2017-10-20T21:20:01.800Z,10.19
2017-10-20T21:22:28.051Z,10.07
2017-10-20T21:24:54.341Z,9.97
2017-10-20T21:27:20.610Z,9.84
2017-10-20T21:29:46.870Z,9.77
2017-10-20T21:32:13.149Z,9.82
2017-10-20T21:34:39.404Z,9.82
2017-10-20T21:37:05.689Z,9.80
2017-10-20T21:39:31.961Z,9.72
2017-10-20T21:41:58.255Z,9.82
2017-10-20T21:44:24.518Z,10.13
2017-10-20T21:46:50.782Z,9.94
2017-10-20T21:49:17.244Z,9.90
2017-10-20T21:51:43.488Z,9.77
2017-10-20T21:54:09.727Z,9.70
2017-10-20T21:56:35.974Z,9.81
2017-10-20T21:59:02.253Z,9.71
2017-10-20T22:01:28.548Z,9.62
2017-10-20T22:03:54.806Z,9.70
2017-10-20T22:06:21.066Z,9.71
2017-10-20T22:08:47.340Z,9.57
2017-10-20T22:11:13.638Z,9.47
2017-10-20T22:13:39.908Z,9.43
2017-10-20T22:16:06.190Z,9.36
2017-10-20T22:18:32.463Z,9.48
2017-10-20T22:20:58.735Z,9.42
2017-10-20T22:23:25.067Z,9.34
2017-10-20T22:25:51.350Z,9.28
2017-10-20T22:28:17.620Z,9.37
2017-10-20T22:30:43.884Z,9.36
2017-10-20T22:33:10.142Z,9.28
2017-10-20T22:35:36.509Z,9.19
2017-10-20T22:38:02.792Z,9.14
2017-10-20T22:40:29.059Z,9.05
2017-10-20T22:42:55.323Z,9.03
2017-10-20T22:45:21.597Z,9.00
2017-10-20T22:47:47.857Z,9.03
2017-10-20T22:50:14.176Z,9.01
2017-10-20T22:52:40.441Z,8.96
2017-10-20T22:55:06.714Z,9.12
2017-10-20T22:57:32.981Z,9.05
2017-10-20T22:59:59.248Z,8.92
2017-10-20T23:02:25.574Z,8.84
2017-10-20T23:04:51.841Z,8.80
2017-10-20T23:07:18.198Z,8.90
2017-10-20T23:09:44.642Z,8.77
2017-10-20T23:12:11.073Z,8.90
2017-10-20T23:14:37.392Z,8.80
2017-10-20T23:17:03.662Z,8.80
2017-10-20T23:19:29.950Z,8.67
2017-10-20T23:21:56.233Z,8.78
2017-10-20T23:24:22.517Z,8.91
2017-10-20T23:26:48.817Z,8.75
2017-10-20T23:29:15.095Z,8.66
2017-10-20T23:31:41.374Z,8.60
2017-10-20T23:34:07.650Z,8.52
2017-10-20T23:36:33.937Z,8.60
2017-10-20T23:39:00.274Z,8.60
2017-10-20T23:41:26.569Z,8.48
2017-10-20T23:43:52.844Z,8.47
2017-10-20T23:46:19.124Z,8.46
2017-10-20T23:48:45.523Z,8.47
2017-10-20T23:51:11.815Z,8.50
2017-10-20T23:53:38.075Z,8.61
2017-10-20T23:56:04.348Z,8.49
2017-10-20T23:58:30.801Z,8.75
